sensor_id;sensor_type;location;lat;lon;timestamp;temperature;humidity
16893;DHT22;8563;52.242;9.098;2023-04-03T00:02:11;2.70;99.90
16893;DHT22;8563;52.242;9.098;2023-04-03T00:04:45;2.60;99.90
16893;DHT22;8563;52.242;9.098;2023-04-03T00:07:17;2.60;99.90
16893;DHT22;8563;52.242;9.098;2023-04-03T00:09:49;2.60;99.90
16893;DHT22;8563;52.242;9.098;2023-04-03T00:12:21;2.60;99.90
16893;DHT22;8563;52.242;9.098;2023-04-03T00:14:53;2.60;99.90
16893;DHT22;8563;52.242;9.098;2023-04-03T00:17:25;2.60;99.90
16893;DHT22;8563;52.242;9.098;2023-04-03T00:19:59;2.50;99.90
16893;DHT22;8563;52.242;9.098;2023-04-03T00:22:31;2.40;99.90
16893;DHT22;8563;52.242;9.098;2023-04-03T00:25:04;2.40;99.90
16893;DHT22;8563;52.242;9.098;2023-04-03T00:27:37;2.30;99.90
16893;DHT22;8563;52.242;9.098;2023-04-03T00:30:14;2.30;99.90
16893;DHT22;8563;52.242;9.098;2023-04-03T00:32:48;2.30;99.90
16893;DHT22;8563;52.242;9.098;2023-04-03T00:35:22;2.20;99.90
16893;DHT22;8563;52.242;9.098;2023-04-03T00:37:55;2.20;99.90
16893;DHT22;8563;52.242;9.098;2023-04-03T00:40:28;2.20;99.90
16893;DHT22;8563;52.242;9.098;2023-04-03T00:43:12;2.20;99.90
16893;DHT22;8563;52.242;9.098;2023-04-03T00:45:46;2.20;99.90
16893;DHT22;8563;52.242;9.098;2023-04-03T00:48:21;2.20;99.90
16893;DHT22;8563;52.242;9.098;2023-04-03T00:50:56;2.10;99.90
16893;DHT22;8563;52.242;9.098;2023-04-03T00:53:33;2.10;99.90
16893;DHT22;8563;52.242;9.098;2023-04-03T00:56:07;2.10;99.90
16893;DHT22;8563;52.242;9.098;2023-04-03T00:58:45;2.00;99.90
16893;DHT22;8563;52.242;9.098;2023-04-03T01:01:20;2.00;99.90
16893;DHT22;8563;52.242;9.098;2023-04-03T01:03:53;2.00;99.90
16893;DHT22;8563;52.242;9.098;2023-04-03T01:06:31;2.00;99.90
16893;DHT22;8563;52.242;9.098;2023-04-03T01:09:10;2.00;99.90
16893;DHT22;8563;52.242;9.098;2023-04-03T01:11:43;2.00;99.90
16893;DHT22;8563;52.242;9.098;2023-04-03T01:14:15;2.00;99.90
16893;DHT22;8563;52.242;9.098;2023-04-03T01:16:52;2.00;99.90
16893;DHT22;8563;52.242;9.098;2023-04-03T01:19:24;2.00;99.90
16893;DHT22;8563;52.242;9.098;2023-04-03T01:22:10;2.10;99.90
16893;DHT22;8563;52.242;9.098;2023-04-03T01:24:49;2.00;99.90
16893;DHT22;8563;52.242;9.098;2023-04-03T01:27:24;2.00;99.90
16893;DHT22;8563;52.242;9.098;2023-04-03T01:29:57;2.00;99.90
16893;DHT22;8563;52.242;9.098;2023-04-03T01:32:31;2.00;99.90
16893;DHT22;8563;52.242;9.098;2023-04-03T01:35:03;2.00;99.90
16893;DHT22;8563;52.242;9.098;2023-04-03T01:37:36;2.00;99.90
16893;DHT22;8563;52.242;9.098;2023-04-03T01:40:09;1.90;99.90
16893;DHT22;8563;52.242;9.098;2023-04-03T01:42:41;1.90;99.90
16893;DHT22;8563;52.242;9.098;2023-04-03T01:45:13;1.90;99.90
16893;DHT22;8563;52.242;9.098;2023-04-03T01:47:47;1.80;99.90
16893;DHT22;8563;52.242;9.098;2023-04-03T01:50:20;1.80;99.90
16893;DHT22;8563;52.242;9.098;2023-04-03T01:52:52;1.80;99.90
16893;DHT22;8563;52.242;9.098;2023-04-03T01:55:24;1.80;99.90
16893;DHT22;8563;52.242;9.098;2023-04-03T01:57:56;1.80;99.90
16893;DHT22;8563;52.242;9.098;2023-04-03T02:00:28;1.80;99.90
16893;DHT22;8563;52.242;9.098;2023-04-03T02:03:03;1.80;99.90
16893;DHT22;8563;52.242;9.098;2023-04-03T02:05:35;1.80;99.90
16893;DHT22;8563;52.242;9.098;2023-04-03T02:08:07;1.70;99.90
16893;DHT22;8563;52.242;9.098;2023-04-03T02:10:39;1.70;99.90
16893;DHT22;8563;52.242;9.098;2023-04-03T02:13:11;1.60;99.90
16893;DHT22;8563;52.242;9.098;2023-04-03T02:15:44;1.70;99.90
16893;DHT22;8563;52.242;9.098;2023-04-03T02:18:17;1.60;99.90
16893;DHT22;8563;52.242;9.098;2023-04-03T02:20:49;1.60;99.90
16893;DHT22;8563;52.242;9.098;2023-04-03T02:23:21;1.60;99.90
16893;DHT22;8563;52.242;9.098;2023-04-03T02:26:03;1.60;99.90
16893;DHT22;8563;52.242;9.098;2023-04-03T02:28:36;1.60;99.90
16893;DHT22;8563;52.242;9.098;2023-04-03T02:31:09;1.50;99.90
16893;DHT22;8563;52.242;9.098;2023-04-03T02:33:44;1.50;99.90
16893;DHT22;8563;52.242;9.098;2023-04-03T02:36:18;1.50;99.90
16893;DHT22;8563;52.242;9.098;2023-04-03T02:38:56;1.50;99.90
16893;DHT22;8563;52.242;9.098;2023-04-03T02:41:28;1.50;99.90
16893;DHT22;8563;52.242;9.098;2023-04-03T02:44:08;1.40;99.90
16893;DHT22;8563;52.242;9.098;2023-04-03T02:46:41;1.40;99.90
16893;DHT22;8563;52.242;9.098;2023-04-03T02:49:14;1.40;99.90
16893;DHT22;8563;52.242;9.098;2023-04-03T02:51:46;1.40;99.90
16893;DHT22;8563;52.242;9.098;2023-04-03T02:54:19;1.40;99.90
16893;DHT22;8563;52.242;9.098;2023-04-03T02:56:57;1.40;99.90
16893;DHT22;8563;52.242;9.098;2023-04-03T02:59:29;1.30;99.90
16893;DHT22;8563;52.242;9.098;2023-04-03T03:02:01;1.30;99.90
16893;DHT22;8563;52.242;9.098;2023-04-03T03:04:35;1.30;99.90
16893;DHT22;8563;52.242;9.098;2023-04-03T03:07:07;1.30;99.90
16893;DHT22;8563;52.242;9.098;2023-04-03T03:09:39;1.30;99.90
16893;DHT22;8563;52.242;9.098;2023-04-03T03:12:11;1.30;99.90
16893;DHT22;8563;52.242;9.098;2023-04-03T03:14:43;1.30;99.90
16893;DHT22;8563;52.242;9.098;2023-04-03T03:17:16;1.30;99.90
16893;DHT22;8563;52.242;9.098;2023-04-03T03:19:49;1.20;99.90
16893;DHT22;8563;52.242;9.098;2023-04-03T03:22:21;1.20;99.90
16893;DHT22;8563;52.242;9.098;2023-04-03T03:24:53;1.20;99.90
16893;DHT22;8563;52.242;9.098;2023-04-03T03:27:25;1.20;99.90
16893;DHT22;8563;52.242;9.098;2023-04-03T03:29:58;1.20;99.90
16893;DHT22;8563;52.242;9.098;2023-04-03T03:32:30;1.10;99.90
16893;DHT22;8563;52.242;9.098;2023-04-03T03:35:04;1.20;99.90
16893;DHT22;8563;52.242;9.098;2023-04-03T03:37:36;1.20;99.90
16893;DHT22;8563;52.242;9.098;2023-04-03T03:40:10;1.10;99.90
16893;DHT22;8563;52.242;9.098;2023-04-03T03:42:43;1.10;99.90
16893;DHT22;8563;52.242;9.098;2023-04-03T03:45:16;1.10;99.90
16893;DHT22;8563;52.242;9.098;2023-04-03T03:47:48;1.10;99.90
16893;DHT22;8563;52.242;9.098;2023-04-03T03:50:21;1.10;99.90
16893;DHT22;8563;52.242;9.098;2023-04-03T03:52:54;1.10;99.90
16893;DHT22;8563;52.242;9.098;2023-04-03T03:55:26;1.10;99.90
16893;DHT22;8563;52.242;9.098;2023-04-03T03:58:01;1.10;99.90
16893;DHT22;8563;52.242;9.098;2023-04-03T04:00:35;1.00;99.90
16893;DHT22;8563;52.242;9.098;2023-04-03T04:03:07;1.00;99.90
16893;DHT22;8563;52.242;9.098;2023-04-03T04:05:41;1.00;99.90
16893;DHT22;8563;52.242;9.098;2023-04-03T04:08:13;1.00;99.90
16893;DHT22;8563;52.242;9.098;2023-04-03T04:10:45;1.00;99.90
16893;DHT22;8563;52.242;9.098;2023-04-03T04:13:19;1.00;99.90
16893;DHT22;8563;52.242;9.098;2023-04-03T04:15:52;0.90;99.90
16893;DHT22;8563;52.242;9.098;2023-04-03T04:18:24;0.90;99.90
16893;DHT22;8563;52.242;9.098;2023-04-03T04:20:58;0.80;99.90
16893;DHT22;8563;52.242;9.098;2023-04-03T04:23:30;0.80;99.90
16893;DHT22;8563;52.242;9.098;2023-04-03T04:26:04;0.80;99.90
16893;DHT22;8563;52.242;9.098;2023-04-03T04:28:40;0.80;99.90
16893;DHT22;8563;52.242;9.098;2023-04-03T04:31:12;0.80;99.90
16893;DHT22;8563;52.242;9.098;2023-04-03T04:33:45;0.80;99.90
16893;DHT22;8563;52.242;9.098;2023-04-03T04:36:20;0.80;99.90
16893;DHT22;8563;52.242;9.098;2023-04-03T04:38:53;0.70;99.90
16893;DHT22;8563;52.242;9.098;2023-04-03T04:41:28;0.70;99.90
16893;DHT22;8563;52.242;9.098;2023-04-03T04:44:01;0.70;99.90
16893;DHT22;8563;52.242;9.098;2023-04-03T04:46:34;0.70;99.90
16893;DHT22;8563;52.242;9.098;2023-04-03T04:49:06;0.60;99.90
16893;DHT22;8563;52.242;9.098;2023-04-03T04:51:40;0.60;99.90
16893;DHT22;8563;52.242;9.098;2023-04-03T04:54:13;0.60;99.90
16893;DHT22;8563;52.242;9.098;2023-04-03T04:56:46;0.70;99.90
16893;DHT22;8563;52.242;9.098;2023-04-03T04:59:18;0.70;99.90
16893;DHT22;8563;52.242;9.098;2023-04-03T05:01:50;0.70;99.90
16893;DHT22;8563;52.242;9.098;2023-04-03T05:04:23;0.70;99.90
16893;DHT22;8563;52.242;9.098;2023-04-03T05:07:01;0.70;99.90
16893;DHT22;8563;52.242;9.098;2023-04-03T05:09:35;0.70;99.90
16893;DHT22;8563;52.242;9.098;2023-04-03T05:12:08;0.70;99.90
16893;DHT22;8563;52.242;9.098;2023-04-03T05:14:46;0.70;99.90
16893;DHT22;8563;52.242;9.098;2023-04-03T05:17:18;0.80;99.90
16893;DHT22;8563;52.242;9.098;2023-04-03T05:19:54;0.80;99.90
16893;DHT22;8563;52.242;9.098;2023-04-03T05:22:29;0.80;99.90
16893;DHT22;8563;52.242;9.098;2023-04-03T05:25:08;0.80;99.90
16893;DHT22;8563;52.242;9.098;2023-04-03T05:27:41;0.80;99.90
16893;DHT22;8563;52.242;9.098;2023-04-03T05:30:13;0.80;99.90
16893;DHT22;8563;52.242;9.098;2023-04-03T05:32:46;1.00;99.90
16893;DHT22;8563;52.242;9.098;2023-04-03T05:35:23;1.20;99.90
16893;DHT22;8563;52.242;9.098;2023-04-03T05:38:00;1.40;99.90
16893;DHT22;8563;52.242;9.098;2023-04-03T05:40:33;1.60;99.90
16893;DHT22;8563;52.242;9.098;2023-04-03T05:43:06;1.70;99.90
16893;DHT22;8563;52.242;9.098;2023-04-03T05:45:42;2.00;99.90
16893;DHT22;8563;52.242;9.098;2023-04-03T05:48:14;2.30;99.90
16893;DHT22;8563;52.242;9.098;2023-04-03T05:50:47;2.50;99.90
16893;DHT22;8563;52.242;9.098;2023-04-03T05:53:28;2.80;99.90
16893;DHT22;8563;52.242;9.098;2023-04-03T05:56:04;3.20;99.90
16893;DHT22;8563;52.242;9.098;2023-04-03T05:58:41;3.40;99.90
16893;DHT22;8563;52.242;9.098;2023-04-03T06:01:14;3.50;99.90
16893;DHT22;8563;52.242;9.098;2023-04-03T06:03:47;3.70;99.90
16893;DHT22;8563;52.242;9.098;2023-04-03T06:06:19;4.00;99.90
16893;DHT22;8563;52.242;9.098;2023-04-03T06:08:54;4.40;99.90
16893;DHT22;8563;52.242;9.098;2023-04-03T06:11:26;4.50;99.90
16893;DHT22;8563;52.242;9.098;2023-04-03T06:13:59;4.50;99.90
16893;DHT22;8563;52.242;9.098;2023-04-03T06:16:31;4.50;99.90
16893;DHT22;8563;52.242;9.098;2023-04-03T06:19:04;4.50;99.90
16893;DHT22;8563;52.242;9.098;2023-04-03T06:21:36;4.50;99.90
16893;DHT22;8563;52.242;9.098;2023-04-03T06:24:14;4.50;99.90
16893;DHT22;8563;52.242;9.098;2023-04-03T06:26:46;4.40;99.90
16893;DHT22;8563;52.242;9.098;2023-04-03T06:29:20;4.20;99.90
16893;DHT22;8563;52.242;9.098;2023-04-03T06:31:52;4.10;99.90
16893;DHT22;8563;52.242;9.098;2023-04-03T06:34:24;4.10;99.90
16893;DHT22;8563;52.242;9.098;2023-04-03T06:36:56;4.10;99.90
16893;DHT22;8563;52.242;9.098;2023-04-03T06:39:30;4.10;99.90
16893;DHT22;8563;52.242;9.098;2023-04-03T06:42:02;4.20;99.90
16893;DHT22;8563;52.242;9.098;2023-04-03T06:44:41;4.20;99.90
16893;DHT22;8563;52.242;9.098;2023-04-03T06:47:14;4.00;99.90
16893;DHT22;8563;52.242;9.098;2023-04-03T06:49:47;3.90;99.90
16893;DHT22;8563;52.242;9.098;2023-04-03T06:52:19;3.80;99.90
16893;DHT22;8563;52.242;9.098;2023-04-03T06:54:52;3.80;99.90
16893;DHT22;8563;52.242;9.098;2023-04-03T06:57:27;3.70;99.90
16893;DHT22;8563;52.242;9.098;2023-04-03T07:00:01;3.60;99.90
16893;DHT22;8563;52.242;9.098;2023-04-03T07:02:36;3.60;99.90
16893;DHT22;8563;52.242;9.098;2023-04-03T07:05:08;3.70;99.90
16893;DHT22;8563;52.242;9.098;2023-04-03T07:07:40;3.60;99.90
16893;DHT22;8563;52.242;9.098;2023-04-03T07:10:14;3.60;99.90
16893;DHT22;8563;52.242;9.098;2023-04-03T07:12:46;3.50;99.90
16893;DHT22;8563;52.242;9.098;2023-04-03T07:15:18;3.60;99.90
16893;DHT22;8563;52.242;9.098;2023-04-03T07:17:51;3.70;99.90
16893;DHT22;8563;52.242;9.098;2023-04-03T07:20:23;3.80;99.90
16893;DHT22;8563;52.242;9.098;2023-04-03T07:22:55;3.70;99.90
16893;DHT22;8563;52.242;9.098;2023-04-03T07:25:29;3.60;99.90
16893;DHT22;8563;52.242;9.098;2023-04-03T07:28:02;3.60;99.90
16893;DHT22;8563;52.242;9.098;2023-04-03T07:30:34;3.60;99.90
16893;DHT22;8563;52.242;9.098;2023-04-03T07:33:07;3.90;99.90
16893;DHT22;8563;52.242;9.098;2023-04-03T07:35:39;3.70;99.90
16893;DHT22;8563;52.242;9.098;2023-04-03T07:38:11;3.50;99.90
16893;DHT22;8563;52.242;9.098;2023-04-03T07:40:47;3.60;99.90
16893;DHT22;8563;52.242;9.098;2023-04-03T07:43:21;3.60;99.90
16893;DHT22;8563;52.242;9.098;2023-04-03T07:45:55;3.70;99.90
16893;DHT22;8563;52.242;9.098;2023-04-03T07:48:27;3.80;99.90
16893;DHT22;8563;52.242;9.098;2023-04-03T07:51:00;3.80;99.90
16893;DHT22;8563;52.242;9.098;2023-04-03T07:53:32;3.70;99.90
16893;DHT22;8563;52.242;9.098;2023-04-03T07:56:07;3.80;99.90
16893;DHT22;8563;52.242;9.098;2023-04-03T07:58:39;3.90;99.90
16893;DHT22;8563;52.242;9.098;2023-04-03T08:01:11;3.90;99.90
16893;DHT22;8563;52.242;9.098;2023-04-03T08:03:43;4.00;99.90
16893;DHT22;8563;52.242;9.098;2023-04-03T08:06:15;4.10;99.90
16893;DHT22;8563;52.242;9.098;2023-04-03T08:08:47;4.20;99.90
16893;DHT22;8563;52.242;9.098;2023-04-03T08:11:21;4.30;99.90
16893;DHT22;8563;52.242;9.098;2023-04-03T08:13:54;4.30;99.90
16893;DHT22;8563;52.242;9.098;2023-04-03T08:16:26;4.40;99.90
16893;DHT22;8563;52.242;9.098;2023-04-03T08:18:59;4.50;99.90
16893;DHT22;8563;52.242;9.098;2023-04-03T08:21:31;4.60;99.90
16893;DHT22;8563;52.242;9.098;2023-04-03T08:24:03;4.70;99.90
16893;DHT22;8563;52.242;9.098;2023-04-03T08:26:38;4.70;99.90
16893;DHT22;8563;52.242;9.098;2023-04-03T08:29:10;4.90;99.90
16893;DHT22;8563;52.242;9.098;2023-04-03T08:31:42;5.00;99.80
16893;DHT22;8563;52.242;9.098;2023-04-03T08:34:15;5.00;98.60
16893;DHT22;8563;52.242;9.098;2023-04-03T08:36:47;5.10;99.90
16893;DHT22;8563;52.242;9.098;2023-04-03T08:39:20;5.30;98.20
16893;DHT22;8563;52.242;9.098;2023-04-03T08:41:55;5.10;97.20
16893;DHT22;8563;52.242;9.098;2023-04-03T08:44:38;5.10;98.60
16893;DHT22;8563;52.242;9.098;2023-04-03T08:47:18;5.30;97.50
16893;DHT22;8563;52.242;9.098;2023-04-03T08:49:53;5.30;97.30
16893;DHT22;8563;52.242;9.098;2023-04-03T08:52:34;5.40;98.20
16893;DHT22;8563;52.242;9.098;2023-04-03T08:55:16;5.30;96.90
16893;DHT22;8563;52.242;9.098;2023-04-03T08:58:00;5.30;97.60
16893;DHT22;8563;52.242;9.098;2023-04-03T09:00:45;5.40;97.60
16893;DHT22;8563;52.242;9.098;2023-04-03T09:03:20;5.50;97.80
16893;DHT22;8563;52.242;9.098;2023-04-03T09:05:55;5.50;97.10
16893;DHT22;8563;52.242;9.098;2023-04-03T09:08:30;5.70;97.50
16893;DHT22;8563;52.242;9.098;2023-04-03T09:11:12;5.60;96.70
16893;DHT22;8563;52.242;9.098;2023-04-03T09:13:50;5.50;96.40
16893;DHT22;8563;52.242;9.098;2023-04-03T09:16:32;5.60;96.40
16893;DHT22;8563;52.242;9.098;2023-04-03T09:19:12;5.80;95.20
16893;DHT22;8563;52.242;9.098;2023-04-03T09:21:48;6.00;95.50
16893;DHT22;8563;52.242;9.098;2023-04-03T09:24:21;6.20;97.10
16893;DHT22;8563;52.242;9.098;2023-04-03T09:26:58;6.60;96.30
16893;DHT22;8563;52.242;9.098;2023-04-03T09:29:33;6.70;96.70
16893;DHT22;8563;52.242;9.098;2023-04-03T09:32:19;6.70;94.60
16893;DHT22;8563;52.242;9.098;2023-04-03T09:34:54;6.80;94.20
16893;DHT22;8563;52.242;9.098;2023-04-03T09:37:37;6.90;94.20
16893;DHT22;8563;52.242;9.098;2023-04-03T09:40:29;6.90;94.10
16893;DHT22;8563;52.242;9.098;2023-04-03T09:43:11;7.00;92.10
16893;DHT22;8563;52.242;9.098;2023-04-03T09:45:53;7.10;93.20
16893;DHT22;8563;52.242;9.098;2023-04-03T09:48:26;6.90;90.20
16893;DHT22;8563;52.242;9.098;2023-04-03T09:51:00;6.90;92.10
16893;DHT22;8563;52.242;9.098;2023-04-03T09:53:36;6.60;90.70
16893;DHT22;8563;52.242;9.098;2023-04-03T09:56:19;6.70;91.70
16893;DHT22;8563;52.242;9.098;2023-04-03T09:59:07;6.80;93.20
16893;DHT22;8563;52.242;9.098;2023-04-03T10:01:43;6.50;90.30
16893;DHT22;8563;52.242;9.098;2023-04-03T10:04:20;6.50;90.70
16893;DHT22;8563;52.242;9.098;2023-04-03T10:06:54;6.50;89.50
16893;DHT22;8563;52.242;9.098;2023-04-03T10:09:28;6.50;87.20
16893;DHT22;8563;52.242;9.098;2023-04-03T10:12:03;6.60;85.40
16893;DHT22;8563;52.242;9.098;2023-04-03T10:14:38;6.90;88.30
16893;DHT22;8563;52.242;9.098;2023-04-03T10:17:18;7.20;84.30
16893;DHT22;8563;52.242;9.098;2023-04-03T10:19:57;7.30;85.10
16893;DHT22;8563;52.242;9.098;2023-04-03T10:22:39;7.40;83.40
16893;DHT22;8563;52.242;9.098;2023-04-03T10:25:17;7.20;83.30
16893;DHT22;8563;52.242;9.098;2023-04-03T10:27:55;7.50;83.50
16893;DHT22;8563;52.242;9.098;2023-04-03T10:30:36;7.60;81.00
16893;DHT22;8563;52.242;9.098;2023-04-03T10:33:20;7.70;83.10
16893;DHT22;8563;52.242;9.098;2023-04-03T10:36:07;7.90;82.30
16893;DHT22;8563;52.242;9.098;2023-04-03T10:38:50;7.80;81.00
16893;DHT22;8563;52.242;9.098;2023-04-03T10:41:30;7.40;82.80
16893;DHT22;8563;52.242;9.098;2023-04-03T10:44:14;7.30;83.80
16893;DHT22;8563;52.242;9.098;2023-04-03T10:46:49;7.00;82.40
16893;DHT22;8563;52.242;9.098;2023-04-03T10:49:35;7.10;83.60
16893;DHT22;8563;52.242;9.098;2023-04-03T10:52:14;7.10;79.70
16893;DHT22;8563;52.242;9.098;2023-04-03T10:54:55;7.10;79.40
16893;DHT22;8563;52.242;9.098;2023-04-03T10:57:32;6.80;77.60
16893;DHT22;8563;52.242;9.098;2023-04-03T11:00:06;6.70;80.70
16893;DHT22;8563;52.242;9.098;2023-04-03T11:02:49;6.60;79.30
16893;DHT22;8563;52.242;9.098;2023-04-03T11:05:29;6.50;80.00
16893;DHT22;8563;52.242;9.098;2023-04-03T11:08:10;6.60;80.40
16893;DHT22;8563;52.242;9.098;2023-04-03T11:10:46;6.60;79.50
16893;DHT22;8563;52.242;9.098;2023-04-03T11:13:24;6.60;79.80
16893;DHT22;8563;52.242;9.098;2023-04-03T11:15:58;6.90;79.60
16893;DHT22;8563;52.242;9.098;2023-04-03T11:18:37;7.20;80.20
16893;DHT22;8563;52.242;9.098;2023-04-03T11:21:19;7.70;78.90
16893;DHT22;8563;52.242;9.098;2023-04-03T11:23:53;7.60;73.20
16893;DHT22;8563;52.242;9.098;2023-04-03T11:26:31;7.30;72.80
16893;DHT22;8563;52.242;9.098;2023-04-03T11:29:11;7.10;71.80
16893;DHT22;8563;52.242;9.098;2023-04-03T11:32:01;7.30;74.00
16893;DHT22;8563;52.242;9.098;2023-04-03T11:34:40;7.30;72.60
16893;DHT22;8563;52.242;9.098;2023-04-03T11:37:20;7.20;73.20
16893;DHT22;8563;52.242;9.098;2023-04-03T11:39:57;7.30;72.90
16893;DHT22;8563;52.242;9.098;2023-04-03T11:42:33;7.30;72.20
16893;DHT22;8563;52.242;9.098;2023-04-03T11:45:29;7.40;72.10
16893;DHT22;8563;52.242;9.098;2023-04-03T11:48:05;7.90;70.10
16893;DHT22;8563;52.242;9.098;2023-04-03T11:50:43;7.90;67.60
16893;DHT22;8563;52.242;9.098;2023-04-03T11:53:32;8.20;67.30
16893;DHT22;8563;52.242;9.098;2023-04-03T11:56:32;8.50;68.50
16893;DHT22;8563;52.242;9.098;2023-04-03T11:59:36;9.10;69.90
16893;DHT22;8563;52.242;9.098;2023-04-03T12:02:35;9.00;64.60
16893;DHT22;8563;52.242;9.098;2023-04-03T12:05:26;9.50;66.80
16893;DHT22;8563;52.242;9.098;2023-04-03T12:08:24;9.60;64.30
16893;DHT22;8563;52.242;9.098;2023-04-03T12:11:24;9.20;63.80
16893;DHT22;8563;52.242;9.098;2023-04-03T12:14:12;9.20;65.60
16893;DHT22;8563;52.242;9.098;2023-04-03T12:16:47;8.70;64.20
16893;DHT22;8563;52.242;9.098;2023-04-03T12:19:40;8.30;65.50
16893;DHT22;8563;52.242;9.098;2023-04-03T12:22:17;8.00;66.50
16893;DHT22;8563;52.242;9.098;2023-04-03T12:24:52;8.10;67.00
16893;DHT22;8563;52.242;9.098;2023-04-03T12:27:29;8.20;67.30
16893;DHT22;8563;52.242;9.098;2023-04-03T12:30:18;8.00;67.00
16893;DHT22;8563;52.242;9.098;2023-04-03T12:33:20;7.90;66.30
16893;DHT22;8563;52.242;9.098;2023-04-03T12:36:03;7.80;67.00
16893;DHT22;8563;52.242;9.098;2023-04-03T12:38:53;7.90;67.80
16893;DHT22;8563;52.242;9.098;2023-04-03T12:41:37;8.10;67.00
16893;DHT22;8563;52.242;9.098;2023-04-03T12:44:24;8.20;67.70
16893;DHT22;8563;52.242;9.098;2023-04-03T12:47:00;8.00;68.30
16893;DHT22;8563;52.242;9.098;2023-04-03T12:49:35;7.80;69.50
16893;DHT22;8563;52.242;9.098;2023-04-03T12:52:19;7.90;67.40
16893;DHT22;8563;52.242;9.098;2023-04-03T12:54:55;8.30;65.80
16893;DHT22;8563;52.242;9.098;2023-04-03T12:57:28;8.70;65.60
16893;DHT22;8563;52.242;9.098;2023-04-03T13:00:19;8.80;64.80
16893;DHT22;8563;52.242;9.098;2023-04-03T13:02:51;8.70;63.30
16893;DHT22;8563;52.242;9.098;2023-04-03T13:05:24;8.60;64.80
16893;DHT22;8563;52.242;9.098;2023-04-03T13:07:59;8.70;68.00
16893;DHT22;8563;52.242;9.098;2023-04-03T13:10:35;8.90;66.20
16893;DHT22;8563;52.242;9.098;2023-04-03T13:13:15;8.60;67.30
16893;DHT22;8563;52.242;9.098;2023-04-03T13:15:50;8.20;64.90
16893;DHT22;8563;52.242;9.098;2023-04-03T13:18:25;8.20;66.80
16893;DHT22;8563;52.242;9.098;2023-04-03T13:21:01;8.00;67.50
16893;DHT22;8563;52.242;9.098;2023-04-03T13:23:37;8.10;67.40
16893;DHT22;8563;52.242;9.098;2023-04-03T13:26:10;8.10;66.70
16893;DHT22;8563;52.242;9.098;2023-04-03T13:28:44;8.10;67.80
16893;DHT22;8563;52.242;9.098;2023-04-03T13:31:23;8.30;67.50
16893;DHT22;8563;52.242;9.098;2023-04-03T13:34:02;8.20;68.20
16893;DHT22;8563;52.242;9.098;2023-04-03T13:36:38;8.20;68.20
16893;DHT22;8563;52.242;9.098;2023-04-03T13:39:23;7.80;66.90
16893;DHT22;8563;52.242;9.098;2023-04-03T13:41:57;7.70;67.40
16893;DHT22;8563;52.242;9.098;2023-04-03T13:44:33;7.70;67.30
16893;DHT22;8563;52.242;9.098;2023-04-03T13:47:18;7.90;67.30
16893;DHT22;8563;52.242;9.098;2023-04-03T13:50:03;8.00;67.90
16893;DHT22;8563;52.242;9.098;2023-04-03T13:52:41;7.80;68.90
16893;DHT22;8563;52.242;9.098;2023-04-03T13:55:21;7.70;69.30
16893;DHT22;8563;52.242;9.098;2023-04-03T13:57:56;7.60;68.40
16893;DHT22;8563;52.242;9.098;2023-04-03T14:00:34;7.90;68.40
16893;DHT22;8563;52.242;9.098;2023-04-03T14:03:18;8.20;68.70
16893;DHT22;8563;52.242;9.098;2023-04-03T14:05:52;8.30;68.10
16893;DHT22;8563;52.242;9.098;2023-04-03T14:08:26;8.10;67.10
16893;DHT22;8563;52.242;9.098;2023-04-03T14:10:58;8.10;66.30
16893;DHT22;8563;52.242;9.098;2023-04-03T14:13:31;8.10;65.40
16893;DHT22;8563;52.242;9.098;2023-04-03T14:16:04;8.00;66.10
16893;DHT22;8563;52.242;9.098;2023-04-03T14:18:38;8.00;67.10
16893;DHT22;8563;52.242;9.098;2023-04-03T14:21:11;7.80;67.70
16893;DHT22;8563;52.242;9.098;2023-04-03T14:23:44;7.60;68.60
16893;DHT22;8563;52.242;9.098;2023-04-03T14:26:18;7.40;68.80
16893;DHT22;8563;52.242;9.098;2023-04-03T14:28:53;7.40;69.40
16893;DHT22;8563;52.242;9.098;2023-04-03T14:31:26;7.40;66.80
16893;DHT22;8563;52.242;9.098;2023-04-03T14:33:59;7.60;66.70
16893;DHT22;8563;52.242;9.098;2023-04-03T14:36:33;7.90;66.60
16893;DHT22;8563;52.242;9.098;2023-04-03T14:39:08;8.30;65.80
16893;DHT22;8563;52.242;9.098;2023-04-03T14:41:42;8.40;64.40
16893;DHT22;8563;52.242;9.098;2023-04-03T14:47:12;8.80;65.30
16893;DHT22;8563;52.242;9.098;2023-04-03T14:49:47;8.80;65.30
16893;DHT22;8563;52.242;9.098;2023-04-03T14:52:22;8.30;64.80
16893;DHT22;8563;52.242;9.098;2023-04-03T15:03:27;7.40;67.90
16893;DHT22;8563;52.242;9.098;2023-04-03T15:14:25;7.90;66.60
16893;DHT22;8563;52.242;9.098;2023-04-03T15:16:57;8.00;66.50
16893;DHT22;8563;52.242;9.098;2023-04-03T15:19:30;7.80;66.50
16893;DHT22;8563;52.242;9.098;2023-04-03T15:22:02;7.70;66.60
16893;DHT22;8563;52.242;9.098;2023-04-03T15:24:35;7.60;66.40
16893;DHT22;8563;52.242;9.098;2023-04-03T15:27:07;7.60;66.40
16893;DHT22;8563;52.242;9.098;2023-04-03T15:29:42;7.60;65.90
16893;DHT22;8563;52.242;9.098;2023-04-03T15:32:16;7.80;67.20
16893;DHT22;8563;52.242;9.098;2023-04-03T15:34:56;8.00;66.30
16893;DHT22;8563;52.242;9.098;2023-04-03T15:37:35;7.90;66.10
16893;DHT22;8563;52.242;9.098;2023-04-03T15:44:08;7.70;67.40
16893;DHT22;8563;52.242;9.098;2023-04-03T15:46:41;7.60;66.50
16893;DHT22;8563;52.242;9.098;2023-04-03T15:49:14;7.60;65.50
16893;DHT22;8563;52.242;9.098;2023-04-03T15:52:06;7.60;65.80
16893;DHT22;8563;52.242;9.098;2023-04-03T15:54:39;7.70;66.50
16893;DHT22;8563;52.242;9.098;2023-04-03T15:57:11;7.60;66.40
16893;DHT22;8563;52.242;9.098;2023-04-03T15:59:43;7.60;66.30
16893;DHT22;8563;52.242;9.098;2023-04-03T16:02:17;7.70;66.10
16893;DHT22;8563;52.242;9.098;2023-04-03T16:04:50;7.70;65.90
16893;DHT22;8563;52.242;9.098;2023-04-03T16:07:22;7.70;65.20
16893;DHT22;8563;52.242;9.098;2023-04-03T16:09:54;7.60;64.90
16893;DHT22;8563;52.242;9.098;2023-04-03T16:12:27;7.60;65.90
16893;DHT22;8563;52.242;9.098;2023-04-03T16:14:59;7.60;65.30
16893;DHT22;8563;52.242;9.098;2023-04-03T16:17:34;7.60;65.80
16893;DHT22;8563;52.242;9.098;2023-04-03T16:20:09;7.60;66.10
16893;DHT22;8563;52.242;9.098;2023-04-03T16:22:42;7.70;66.30
16893;DHT22;8563;52.242;9.098;2023-04-03T16:25:15;7.70;66.10
16893;DHT22;8563;52.242;9.098;2023-04-03T16:27:50;7.70;66.10
16893;DHT22;8563;52.242;9.098;2023-04-03T16:30:22;7.70;66.00
16893;DHT22;8563;52.242;9.098;2023-04-03T16:32:56;7.60;66.50
16893;DHT22;8563;52.242;9.098;2023-04-03T16:35:32;7.70;66.30
16893;DHT22;8563;52.242;9.098;2023-04-03T16:38:07;7.60;66.80
16893;DHT22;8563;52.242;9.098;2023-04-03T16:40:40;7.70;66.30
16893;DHT22;8563;52.242;9.098;2023-04-03T16:43:12;7.60;67.20
16893;DHT22;8563;52.242;9.098;2023-04-03T16:45:58;7.50;68.80
16893;DHT22;8563;52.242;9.098;2023-04-03T16:48:34;7.50;68.30
16893;DHT22;8563;52.242;9.098;2023-04-03T16:51:07;7.30;68.00
16893;DHT22;8563;52.242;9.098;2023-04-03T16:53:39;7.20;69.70
16893;DHT22;8563;52.242;9.098;2023-04-03T16:56:53;7.10;69.50
16893;DHT22;8563;52.242;9.098;2023-04-03T16:59:25;7.10;69.20
16893;DHT22;8563;52.242;9.098;2023-04-03T17:01:57;7.00;68.60
16893;DHT22;8563;52.242;9.098;2023-04-03T17:04:32;6.90;70.60
16893;DHT22;8563;52.242;9.098;2023-04-03T17:07:10;6.90;69.90
16893;DHT22;8563;52.242;9.098;2023-04-03T17:09:42;6.90;70.10
16893;DHT22;8563;52.242;9.098;2023-04-03T17:12:14;6.90;69.70
16893;DHT22;8563;52.242;9.098;2023-04-03T17:14:47;6.90;71.20
16893;DHT22;8563;52.242;9.098;2023-04-03T17:17:22;7.00;70.30
16893;DHT22;8563;52.242;9.098;2023-04-03T17:19:56;7.00;70.60
16893;DHT22;8563;52.242;9.098;2023-04-03T17:22:29;6.90;70.50